createdAt,value
2018-02-19T00:00:53.919Z,40.70
2018-02-19T00:03:21.704Z,42.20
2018-02-19T00:05:49.506Z,41.40
2018-02-19T00:08:17.294Z,40.90
2018-02-19T00:10:45.085Z,41.00
2018-02-19T00:13:12.901Z,40.10
2018-02-19T00:15:40.695Z,40.70
2018-02-19T00:18:08.531Z,41.50
2018-02-19T00:20:36.286Z,40.50
2018-02-19T00:23:04.044Z,40.70
2018-02-19T00:25:31.855Z,39.80
2018-02-19T00:27:59.751Z,40.40
2018-02-19T00:30:27.579Z,39.90
2018-02-19T00:32:55.358Z,40.70
2018-02-19T00:35:23.168Z,40.00
2018-02-19T00:37:50.947Z,40.20
2018-02-19T00:40:18.752Z,40.00
2018-02-19T00:42:47.391Z,41.00
2018-02-19T00:45:15.211Z,41.00
2018-02-19T00:47:43.071Z,40.60
2018-02-19T00:50:10.898Z,41.20
2018-02-19T00:52:38.716Z,40.20
2018-02-19T00:55:06.593Z,41.20
2018-02-19T00:57:34.443Z,41.20
2018-02-19T01:00:02.248Z,40.80
2018-02-19T01:02:30.006Z,41.90
2018-02-19T01:04:57.765Z,40.60
2018-02-19T01:07:25.518Z,40.50
2018-02-19T01:09:53.310Z,40.50
2018-02-19T01:12:21.137Z,40.40
2018-02-19T01:14:48.886Z,40.20
2018-02-19T01:17:16.660Z,41.60
2018-02-19T01:19:44.482Z,41.50
2018-02-19T01:22:15.192Z,39.90
2018-02-19T01:24:43.006Z,41.00
2018-02-19T01:27:10.839Z,42.30
2018-02-19T01:29:38.680Z,41.60
2018-02-19T01:32:06.412Z,40.70
2018-02-19T01:34:34.231Z,41.00
2018-02-19T01:37:01.977Z,40.50
2018-02-19T01:39:30.280Z,42.70
2018-02-19T01:41:58.028Z,41.70
2018-02-19T01:44:25.848Z,40.90
2018-02-19T01:46:53.623Z,41.40
2018-02-19T01:49:21.440Z,41.50
2018-02-19T01:51:49.251Z,41.00
2018-02-19T01:54:17.006Z,41.70
2018-02-19T01:56:44.872Z,41.10
2018-02-19T01:59:12.631Z,40.90
2018-02-19T02:01:40.462Z,42.20
2018-02-19T02:04:08.249Z,41.30
2018-02-19T02:06:36.044Z,41.80
2018-02-19T02:09:03.958Z,42.30
2018-02-19T02:11:32.657Z,41.60
2018-02-19T02:14:01.292Z,40.90
2018-02-19T02:16:29.208Z,40.80
2018-02-19T02:18:57.046Z,41.80
2018-02-19T02:21:24.840Z,41.00
2018-02-19T02:23:52.658Z,42.00
2018-02-19T02:26:20.424Z,42.90
2018-02-19T02:28:48.258Z,42.40
2018-02-19T02:31:16.034Z,42.00
2018-02-19T02:33:43.800Z,42.00
2018-02-19T02:36:11.646Z,41.20
2018-02-19T02:38:40.222Z,41.50
2018-02-19T02:41:08.820Z,42.60
2018-02-19T02:43:36.659Z,42.60
2018-02-19T02:46:04.469Z,42.40
2018-02-19T02:48:32.242Z,42.60
2018-02-19T02:51:00.004Z,43.50
2018-02-19T02:53:27.828Z,42.10
2018-02-19T02:55:55.729Z,42.40
2018-02-19T02:58:23.606Z,41.80
2018-02-19T03:00:51.369Z,42.60
2018-02-19T03:03:19.202Z,43.30
2018-02-19T03:05:46.960Z,43.20
2018-02-19T03:08:14.770Z,42.70
2018-02-19T03:10:42.610Z,43.20
2018-02-19T03:13:10.433Z,42.20
2018-02-19T03:15:38.242Z,42.80
2018-02-19T03:18:06.067Z,43.30
2018-02-19T03:20:33.941Z,42.90
2018-02-19T03:23:01.802Z,41.80
2018-02-19T03:25:30.389Z,41.00
2018-02-19T03:27:58.382Z,41.00
2018-02-19T03:30:26.234Z,42.80
2018-02-19T03:32:54.101Z,42.80
2018-02-19T03:35:21.950Z,41.40
2018-02-19T03:37:49.774Z,42.80
2018-02-19T03:40:17.577Z,42.80
2018-02-19T03:42:45.417Z,41.50
2018-02-19T03:45:13.234Z,43.30
2018-02-19T03:47:41.087Z,44.60
2018-02-19T03:50:08.902Z,45.20
2018-02-19T03:52:36.690Z,42.90
2018-02-19T03:55:04.494Z,42.60
2018-02-19T03:57:32.355Z,42.90
2018-02-19T04:00:00.194Z,45.00
2018-02-19T04:02:28.021Z,44.60
2018-02-19T04:04:55.814Z,44.30
2018-02-19T04:07:23.565Z,46.20
2018-02-19T04:09:51.396Z,44.30
2018-02-19T04:12:19.177Z,43.40
2018-02-19T04:14:46.952Z,43.70
2018-02-19T04:17:14.696Z,42.30
2018-02-19T04:19:42.517Z,42.70
2018-02-19T04:22:10.307Z,45.40
2018-02-19T04:24:38.072Z,43.10
2018-02-19T04:27:05.826Z,43.10
2018-02-19T04:29:33.684Z,43.50
2018-02-19T04:32:01.504Z,42.40
2018-02-19T04:34:29.442Z,42.30
2018-02-19T04:36:57.266Z,43.70
2018-02-19T04:39:25.105Z,43.30
2018-02-19T04:41:53.635Z,43.20
2018-02-19T04:44:24.318Z,43.10
2018-02-19T04:46:53.538Z,42.70
2018-02-19T04:49:21.382Z,42.60
2018-02-19T04:51:49.940Z,43.60
2018-02-19T04:54:17.757Z,43.60
2018-02-19T04:56:45.592Z,41.80
2018-02-19T04:59:13.413Z,40.40
2018-02-19T05:01:41.170Z,43.50
2018-02-19T05:04:08.933Z,42.30
2018-02-19T05:06:36.757Z,42.20
2018-02-19T05:09:04.571Z,43.70
2018-02-19T05:11:32.356Z,42.10
2018-02-19T05:14:00.182Z,44.50
2018-02-19T05:16:28.018Z,42.20
2018-02-19T05:18:55.777Z,43.00
2018-02-19T05:21:24.328Z,42.70
2018-02-19T05:23:52.130Z,42.50
2018-02-19T05:26:19.886Z,41.70
2018-02-19T05:28:47.688Z,41.50
2018-02-19T05:31:15.441Z,41.20
2018-02-19T05:33:43.206Z,41.30
2018-02-19T05:36:11.012Z,40.80
2018-02-19T05:38:38.771Z,39.30
2018-02-19T05:41:06.529Z,39.50
2018-02-19T05:43:34.275Z,40.20
2018-02-19T05:46:50.210Z,41.80
2018-02-19T06:02:23.177Z,40.90
2018-02-19T06:04:50.934Z,39.80
2018-02-19T06:07:18.682Z,40.20
2018-02-19T06:09:46.463Z,41.00
2018-02-19T06:12:14.379Z,41.00
2018-02-19T06:14:42.227Z,40.20
2018-02-19T06:17:10.057Z,40.10
2018-02-19T06:19:37.827Z,41.90
2018-02-19T06:22:05.708Z,41.20
2018-02-19T06:24:33.497Z,39.30
2018-02-19T06:27:01.239Z,41.00
2018-02-19T06:29:28.986Z,40.50
2018-02-19T06:31:56.832Z,40.10
2018-02-19T06:34:24.542Z,39.70
2018-02-19T06:36:52.288Z,39.90
2018-02-19T06:39:20.029Z,39.60
2018-02-19T06:41:48.456Z,38.90
2018-02-19T06:44:16.199Z,39.30
2018-02-19T06:46:44.041Z,40.50
2018-02-19T06:49:11.931Z,38.20
2018-02-19T06:51:39.725Z,39.10
2018-02-19T06:54:07.541Z,38.50
2018-02-19T06:56:35.325Z,37.20
2018-02-19T06:59:03.069Z,38.60
2018-02-19T07:01:30.888Z,39.20
2018-02-19T07:03:58.672Z,36.70
2018-02-19T07:06:26.464Z,37.60
2018-02-19T07:08:54.221Z,37.20
2018-02-19T07:11:22.042Z,36.90
2018-02-19T07:13:49.817Z,38.20
2018-02-19T07:16:17.560Z,37.00
2018-02-19T07:18:45.322Z,37.30
2018-02-19T07:21:13.116Z,37.70
2018-02-19T07:23:40.892Z,36.60
2018-02-19T07:26:08.629Z,35.90
2018-02-19T07:28:36.350Z,37.30
2018-02-19T07:31:04.085Z,37.10
2018-02-19T07:33:32.112Z,37.30
2018-02-19T07:35:59.912Z,37.60
2018-02-19T07:38:27.649Z,36.70
2018-02-19T07:40:55.465Z,37.50
2018-02-19T07:43:23.200Z,36.60
2018-02-19T07:45:50.933Z,35.90
2018-02-19T07:48:18.678Z,37.00
2018-02-19T07:50:47.228Z,34.50
2018-02-19T07:53:14.985Z,34.60
2018-02-19T07:55:42.798Z,34.80
2018-02-19T07:58:10.538Z,37.40
2018-02-19T08:00:38.289Z,36.00
2018-02-19T08:03:06.012Z,35.30
2018-02-19T08:05:33.811Z,35.50
2018-02-19T08:08:01.612Z,35.90
2018-02-19T08:10:29.363Z,35.40
2018-02-19T08:12:57.108Z,36.10
2018-02-19T08:15:24.846Z,37.20
2018-02-19T08:17:52.660Z,35.10
2018-02-19T08:20:20.415Z,33.70
2018-02-19T08:22:48.139Z,34.90
2018-02-19T08:25:15.954Z,37.70
2018-02-19T08:27:43.757Z,35.80
2018-02-19T08:30:11.511Z,33.80
2018-02-19T08:32:39.289Z,35.90
2018-02-19T08:35:07.049Z,36.50
2018-02-19T08:37:34.812Z,38.30
2018-02-19T08:40:02.583Z,36.30
2018-02-19T08:42:30.537Z,35.00
2018-02-19T08:44:58.366Z,35.60
2018-02-19T08:47:26.132Z,35.00
2018-02-19T08:49:53.919Z,35.00
2018-02-19T08:52:21.675Z,33.50
2018-02-19T08:54:49.463Z,35.50
2018-02-19T08:57:17.256Z,34.30
2018-02-19T08:59:45.103Z,37.20
2018-02-19T09:02:12.936Z,35.80
2018-02-19T09:04:40.777Z,35.70
2018-02-19T09:07:08.544Z,34.70
2018-02-19T09:09:36.438Z,35.40
2018-02-19T09:12:04.216Z,35.80
2018-02-19T09:14:32.085Z,33.10
2018-02-19T09:16:59.872Z,33.50
2018-02-19T09:19:27.632Z,33.70
2018-02-19T09:21:55.684Z,36.10
2018-02-19T09:24:23.416Z,37.40
2018-02-19T09:26:51.363Z,36.30
2018-02-19T09:29:19.181Z,37.40
2018-02-19T09:31:46.934Z,34.00
2018-02-19T09:34:15.608Z,36.90
2018-02-19T09:36:43.406Z,36.80
2018-02-19T09:39:11.247Z,34.30
2018-02-19T09:41:39.379Z,34.70
2018-02-19T09:44:07.141Z,38.80
2018-02-19T09:46:34.918Z,39.20
2018-02-19T09:49:02.669Z,37.90
2018-02-19T09:51:30.428Z,37.10
2018-02-19T09:53:58.338Z,38.30
2018-02-19T09:56:26.138Z,35.80
2018-02-19T09:58:53.882Z,35.50
2018-02-19T10:01:21.683Z,37.50
2018-02-19T10:03:49.815Z,34.80
2018-02-19T10:06:17.614Z,35.10
2018-02-19T10:08:46.216Z,36.40
2018-02-19T10:11:14.074Z,36.30
2018-02-19T10:13:42.594Z,34.20
2018-02-19T10:16:10.432Z,34.10
2018-02-19T10:18:38.258Z,37.70
2018-02-19T10:21:06.025Z,36.40
2018-02-19T10:23:33.818Z,36.90
2018-02-19T10:26:02.326Z,36.20
2018-02-19T10:28:30.141Z,36.10
2018-02-19T10:30:57.884Z,35.60
2018-02-19T10:33:25.660Z,35.70
2018-02-19T10:35:53.405Z,36.80
2018-02-19T10:38:21.248Z,36.20
2018-02-19T10:40:49.013Z,36.70
2018-02-19T10:43:16.809Z,35.20
2018-02-19T10:45:44.607Z,36.80
2018-02-19T10:48:12.437Z,35.50
2018-02-19T10:50:40.195Z,36.00
2018-02-19T10:53:08.048Z,36.50
2018-02-19T10:55:36.557Z,36.40
2018-02-19T10:58:04.367Z,36.40
2018-02-19T11:00:37.917Z,35.40
2018-02-19T11:03:06.546Z,35.20
2018-02-19T11:05:34.366Z,37.00
2018-02-19T11:08:02.185Z,36.20
2018-02-19T11:10:31.660Z,35.20
2018-02-19T11:12:59.422Z,35.10
2018-02-19T11:15:27.262Z,34.70
2018-02-19T11:17:55.014Z,35.00
2018-02-19T11:20:22.804Z,34.90
2018-02-19T11:22:50.540Z,35.40
2018-02-19T11:25:18.447Z,35.60
2018-02-19T11:27:47.414Z,35.20
2018-02-19T11:30:15.998Z,33.50
2018-02-19T11:32:43.825Z,33.40
2018-02-19T11:35:11.660Z,34.50
2018-02-19T11:37:40.249Z,35.60
2018-02-19T11:40:08.230Z,35.60
2018-02-19T11:42:35.975Z,34.10
2018-02-19T11:45:04.442Z,33.80
2018-02-19T11:47:33.786Z,35.80
2018-02-19T11:50:04.105Z,35.50
2018-02-19T11:52:32.769Z,34.20
2018-02-19T11:55:00.544Z,33.90
2018-02-19T11:57:29.124Z,34.40
2018-02-19T11:59:56.957Z,34.40
2018-02-19T12:02:25.286Z,35.50
2018-02-19T12:04:53.049Z,36.50
2018-02-19T12:07:21.637Z,33.40
2018-02-19T12:09:54.783Z,30.80
2018-02-19T12:12:23.102Z,32.30
2018-02-19T12:18:13.897Z,33.70
2018-02-19T12:20:41.672Z,33.40
2018-02-19T12:23:09.413Z,34.60
2018-02-19T12:25:37.228Z,30.50
2018-02-19T12:28:05.065Z,31.30
2018-02-19T12:30:32.873Z,34.80
2018-02-19T12:33:01.465Z,32.10
2018-02-19T12:35:29.300Z,32.00
2018-02-19T12:37:57.080Z,34.60
2018-02-19T12:40:25.663Z,33.50
2018-02-19T12:42:53.397Z,33.40
2018-02-19T12:45:21.205Z,33.60
2018-02-19T12:47:49.029Z,32.90
2018-02-19T12:50:16.827Z,33.00
2018-02-19T12:52:44.660Z,32.70
2018-02-19T12:55:12.476Z,34.00
2018-02-19T12:57:40.217Z,31.70
2018-02-19T13:00:07.971Z,34.30
2018-02-19T13:02:35.780Z,32.90
2018-02-19T13:05:03.678Z,33.00
2018-02-19T13:07:31.512Z,34.20
2018-02-19T13:10:00.130Z,33.00
2018-02-19T13:12:27.919Z,32.90
2018-02-19T13:14:55.665Z,33.30
2018-02-19T13:17:23.490Z,33.70
2018-02-19T13:19:52.049Z,33.50
2018-02-19T13:22:19.777Z,33.40
2018-02-19T13:24:47.561Z,31.90
2018-02-19T13:27:15.363Z,32.50
2018-02-19T13:29:43.106Z,32.30
2018-02-19T13:34:51.650Z,33.40
2018-02-19T13:37:19.405Z,30.00
2018-02-19T13:39:47.211Z,30.00
2018-02-19T13:42:15.000Z,32.50
2018-02-19T13:44:43.585Z,30.60
2018-02-19T13:47:11.319Z,30.00
2018-02-19T13:49:39.118Z,31.50
2018-02-19T13:52:06.900Z,30.60
2018-02-19T13:54:34.628Z,30.70
2018-02-19T13:57:02.442Z,33.30
2018-02-19T13:59:30.235Z,30.80
2018-02-19T14:01:58.785Z,30.20
2018-02-19T14:04:26.517Z,30.20
2018-02-19T14:06:54.345Z,30.40
2018-02-19T14:09:22.145Z,31.50
2018-02-19T14:11:49.872Z,30.30
2018-02-19T14:14:17.657Z,28.70
2018-02-19T14:16:45.470Z,30.10
2018-02-19T14:19:13.292Z,28.40
2018-02-19T14:21:41.037Z,29.80
2018-02-19T14:24:08.796Z,30.90
2018-02-19T14:26:36.618Z,30.70
2018-02-19T14:29:04.464Z,30.60
2018-02-19T14:31:32.271Z,31.60
2018-02-19T14:34:00.118Z,30.00
2018-02-19T14:36:27.942Z,29.30
2018-02-19T14:38:55.790Z,30.10
2018-02-19T14:41:23.885Z,30.00
2018-02-19T14:43:51.652Z,30.20
2018-02-19T14:46:24.572Z,31.10
2018-02-19T14:52:01.866Z,31.10
2018-02-19T14:54:29.672Z,31.00
2018-02-19T14:56:57.531Z,30.60
2018-02-19T14:59:25.401Z,30.90
2018-02-19T15:01:53.154Z,31.50
2018-02-19T15:04:20.955Z,31.50
2018-02-19T15:06:48.714Z,30.40
2018-02-19T15:09:16.503Z,30.10
2018-02-19T15:11:44.232Z,30.00
2018-02-19T15:14:12.004Z,28.70
2018-02-19T15:16:39.905Z,29.90
2018-02-19T15:19:07.635Z,30.20
2018-02-19T15:21:35.401Z,30.50
2018-02-19T15:24:03.221Z,30.70
2018-02-19T15:26:32.453Z,31.10
2018-02-19T15:29:00.439Z,33.50
2018-02-19T15:31:28.340Z,33.70
2018-02-19T15:33:56.928Z,32.00
2018-02-19T15:36:24.704Z,31.90
2018-02-19T15:38:52.922Z,29.60
2018-02-19T15:41:21.280Z,32.50
2018-02-19T15:43:49.058Z,32.00
2018-02-19T15:46:16.802Z,30.00
2018-02-19T15:48:44.596Z,30.10
2018-02-19T15:51:12.355Z,30.60
2018-02-19T15:53:40.156Z,31.90
2018-02-19T15:56:07.957Z,31.30
2018-02-19T15:58:35.741Z,31.80
2018-02-19T16:01:03.534Z,30.60
2018-02-19T16:03:31.273Z,30.20
2018-02-19T16:05:59.000Z,30.00
2018-02-19T16:08:26.772Z,31.90
2018-02-19T16:10:54.606Z,32.60
2018-02-19T16:13:22.345Z,31.70
2018-02-19T16:15:50.121Z,30.80
2018-02-19T16:18:17.852Z,32.70
2018-02-19T16:20:45.585Z,31.60
2018-02-19T16:23:13.374Z,32.00
2018-02-19T16:25:41.108Z,31.30
2018-02-19T16:28:08.869Z,32.60
2018-02-19T16:30:36.612Z,31.00
2018-02-19T16:33:04.458Z,30.40
2018-02-19T16:35:32.184Z,31.60
2018-02-19T16:37:59.963Z,31.50
2018-02-19T16:40:27.710Z,31.90
2018-02-19T16:42:55.663Z,30.50
2018-02-19T16:45:27.208Z,31.90
2018-02-19T16:47:56.055Z,31.70
2018-02-19T16:50:23.937Z,31.40
2018-02-19T16:52:52.495Z,31.80
2018-02-19T16:55:20.478Z,31.80
2018-02-19T16:57:49.469Z,31.20
2018-02-19T17:00:17.254Z,32.40
2018-02-19T17:02:52.803Z,32.10
2018-02-19T17:05:20.577Z,31.10
2018-02-19T17:07:48.499Z,32.00
2018-02-19T17:10:16.381Z,33.00
2018-02-19T17:12:44.186Z,31.80
2018-02-19T17:15:11.973Z,31.70
2018-02-19T17:17:40.391Z,31.60
2018-02-19T17:20:08.891Z,31.50
2018-02-19T17:22:36.642Z,32.00
2018-02-19T17:25:04.487Z,30.90
2018-02-19T17:27:32.293Z,31.30
2018-02-19T17:30:00.300Z,31.00
2018-02-19T17:32:28.225Z,31.90
2018-02-19T17:48:20.995Z,31.70
2018-02-19T17:50:49.620Z,30.80
2018-02-19T17:53:18.330Z,30.70
2018-02-19T17:55:46.363Z,31.70
2018-02-19T17:58:14.897Z,31.50
2018-02-19T18:00:42.821Z,31.50
2018-02-19T18:03:10.762Z,30.80
2018-02-19T18:05:38.551Z,32.00
2018-02-19T18:08:07.397Z,31.90
2018-02-19T18:10:35.415Z,31.60
2018-02-19T18:13:03.301Z,33.00
2018-02-19T18:15:31.121Z,31.40
2018-02-19T18:17:58.945Z,32.50
2018-02-19T18:20:26.810Z,32.10
2018-02-19T18:22:55.185Z,32.00
2018-02-19T18:25:22.985Z,32.20
2018-02-19T18:27:51.791Z,32.20
2018-02-19T18:30:19.810Z,32.80
2018-02-19T18:32:47.689Z,33.20
2018-02-19T18:35:15.512Z,31.60
2018-02-19T18:37:43.369Z,32.40
2018-02-19T18:40:11.858Z,32.80
2018-02-19T18:42:39.692Z,32.50
2018-02-19T18:45:08.004Z,33.30
2018-02-19T18:47:35.980Z,32.90
2018-02-19T18:50:10.278Z,33.70
2018-02-19T18:52:41.240Z,32.20
2018-02-19T18:55:09.202Z,33.20
2018-02-19T18:57:37.001Z,31.90
2018-02-19T19:00:04.825Z,32.30
2018-02-19T19:02:32.640Z,32.80
2018-02-19T19:05:02.010Z,32.70
2018-02-19T19:07:42.436Z,33.50
2018-02-19T19:10:22.280Z,33.40
2018-02-19T19:12:50.056Z,32.90
2018-02-19T19:15:18.035Z,32.90
2018-02-19T19:17:45.899Z,33.40
2018-02-19T19:20:13.731Z,31.50
2018-02-19T19:22:42.291Z,32.50
2018-02-19T19:25:10.060Z,32.50
2018-02-19T19:27:37.911Z,32.10
2018-02-19T19:30:06.223Z,33.50
2018-02-19T19:32:34.403Z,33.30
2018-02-19T19:35:02.327Z,32.60
2018-02-19T19:37:30.999Z,32.50
2018-02-19T19:39:58.881Z,33.10
2018-02-19T19:42:26.816Z,32.10
2018-02-19T19:44:55.901Z,33.10
2018-02-19T19:47:24.160Z,33.10
2018-02-19T19:49:52.017Z,32.70
2018-02-19T19:52:20.803Z,32.20
2018-02-19T19:54:48.665Z,32.40
2018-02-19T19:57:16.766Z,32.60
2018-02-19T19:59:46.833Z,33.80
2018-02-19T20:02:16.531Z,32.30
2018-02-19T20:04:44.787Z,31.80
2018-02-19T20:07:13.001Z,31.90
2018-02-19T20:09:41.236Z,32.10
2018-02-19T20:12:09.321Z,32.80
2018-02-19T20:14:40.183Z,32.70
2018-02-19T20:17:09.652Z,32.70
2018-02-19T20:19:38.539Z,32.30
2018-02-19T20:22:06.542Z,32.80
2018-02-19T20:24:34.508Z,31.50
2018-02-19T20:27:02.903Z,31.30
2018-02-19T20:29:31.120Z,31.20
2018-02-19T20:31:59.011Z,33.00
2018-02-19T20:34:31.404Z,31.20
2018-02-19T20:39:35.560Z,31.50
2018-02-19T20:42:04.179Z,31.80
2018-02-19T20:44:33.659Z,31.60
2018-02-19T20:47:01.927Z,31.40
2018-02-19T20:49:32.675Z,32.90
2018-02-19T20:52:01.939Z,31.90
2018-02-19T20:54:31.016Z,31.80
2018-02-19T20:56:58.988Z,32.00
2018-02-19T20:59:26.821Z,31.70
2018-02-19T21:01:54.684Z,31.50
2018-02-19T21:04:23.722Z,32.10
2018-02-19T21:06:53.130Z,32.20
2018-02-19T21:09:21.312Z,31.20
2018-02-19T21:11:49.506Z,32.50
2018-02-19T21:14:17.468Z,32.00
2018-02-19T21:16:45.442Z,32.80
2018-02-19T21:19:13.265Z,32.20
2018-02-19T21:21:41.039Z,31.50
2018-02-19T21:24:09.067Z,31.90
2018-02-19T21:26:36.908Z,32.30
2018-02-19T21:29:04.693Z,32.10
2018-02-19T21:31:32.831Z,31.90
2018-02-19T21:34:00.667Z,31.80
2018-02-19T21:36:29.219Z,31.70
2018-02-19T21:38:57.145Z,31.70
2018-02-19T21:41:24.918Z,31.50
2018-02-19T21:43:53.182Z,31.80
2018-02-19T21:46:21.166Z,31.60
2018-02-19T21:48:48.998Z,31.90
2018-02-19T21:51:16.915Z,31.60
2018-02-19T21:53:44.899Z,31.90
2018-02-19T21:56:12.795Z,32.10
2018-02-19T21:58:40.736Z,31.50
2018-02-19T22:01:08.665Z,32.20
2018-02-19T22:03:36.494Z,30.90
2018-02-19T22:06:04.544Z,31.50
2018-02-19T22:08:32.367Z,31.10
2018-02-19T22:11:01.885Z,31.60
2018-02-19T22:13:31.841Z,31.60
2018-02-19T22:15:59.696Z,32.40
2018-02-19T22:18:27.661Z,31.80
2018-02-19T22:20:55.496Z,32.20
2018-02-19T22:23:24.685Z,32.50
2018-02-19T22:25:52.556Z,32.50
2018-02-19T22:28:21.230Z,31.50
2018-02-19T22:30:49.048Z,31.50
2018-02-19T22:33:16.858Z,31.70
2018-02-19T22:35:44.712Z,33.20
2018-02-19T22:38:12.512Z,32.70
2018-02-19T22:40:40.399Z,32.10
2018-02-19T22:43:09.066Z,31.60
2018-02-19T22:45:37.633Z,32.40
2018-02-19T22:48:06.277Z,31.80
2018-02-19T22:50:34.495Z,31.90
2018-02-19T22:53:02.304Z,31.90
2018-02-19T22:55:30.910Z,32.60
2018-02-19T22:57:58.722Z,32.50
2018-02-19T23:00:26.529Z,31.90
2018-02-19T23:02:55.131Z,34.20
2018-02-19T23:05:23.004Z,34.10
2018-02-19T23:07:51.824Z,32.20
2018-02-19T23:10:22.305Z,32.00
2018-02-19T23:12:50.099Z,32.10
2018-02-19T23:15:18.824Z,32.10
2018-02-19T23:17:46.751Z,32.00
2018-02-19T23:20:14.572Z,33.10
2018-02-19T23:22:42.390Z,32.30
2018-02-19T23:25:10.219Z,32.70
2018-02-19T23:27:38.094Z,32.60
2018-02-19T23:30:05.919Z,32.80
2018-02-19T23:32:33.771Z,32.70
2018-02-19T23:35:02.441Z,32.70
2018-02-19T23:37:29.456Z,32.80
2018-02-19T23:39:57.258Z,32.60
2018-02-19T23:42:25.143Z,33.00
2018-02-19T23:44:53.016Z,33.00
2018-02-19T23:47:20.880Z,32.90
2018-02-19T23:49:48.766Z,32.50
2018-02-19T23:52:16.620Z,33.00
2018-02-19T23:54:44.514Z,32.90
2018-02-19T23:57:12.286Z,33.20
2018-02-19T23:59:40.103Z,33.20
